TULLOCH (TUL)

Elevation: 515' · STANISLAUS R basin · Operator: US Bureau of Reclamation


Station comments:

05/18/2015The capacity was revised in April 2015 using data from the US Bureau of Reclamation


Provisional data, subject to change.
Query executed Wednesday at 1:18:37   clock

Select a sensor type for a plot of data.
Note: Reservoir Flows are daily averages.

Earlier

Date RES ELE    STORAGE    RES CHG    TOC STO    ABV TOC    OUTFLOW    INFLOW    EVAP    RIV REL    SPILL    DIS PWR   
 FEET   AF   AF   AF   AF   CFS   CFS   CFS   CFS   CFS   CFS  
07/06/2015 509.58 66444 187 67000 -556 1134 1242 14 0 0 1134
07/07/2015 509.42 66244 -200 67000 -756 1138 1050 13 0 0 1138
07/08/2015 508.43 65018 -1226 67000 -1982 1192 588 14 0 0 1192
07/09/2015 508.43 65018 0 67000 -1982 1267 1281 14 0 0 1267
07/10/2015 508.39 64969 -49 67000 -2031 1245 1230 10 0 0 1245
07/11/2015 508.49 65092 123 67000 -1908 1239 1307 6 0 0 1239
07/12/2015 509.13 65882 -- 67000 -1118 1246 1658 14 0 0 1246
07/13/2015 509.42 66244 362 67000 -756 1174 1370 13 0 0 1174
07/14/2015 509.18 65945 -299 67000 -1055 1174 1039 16 0 0 1174
07/15/2015 509.10 65845 -100 67000 -1155 1167 1132 15 0 0 1167
07/16/2015 509.27 66057 212 67000 -943 1136 1259 16 0 0 1136
07/17/2015 508.89 65585 -472 67000 -1415 1171 950 17 0 0 1171
07/18/2015 508.23 64772 -813 67000 -2228 1192 799 17 0 0 1192
07/19/2015 508.28 64834 62 67000 -2166 1152 1196 13 0 0 1152
07/20/2015 509.01 65732 898 67000 -1268 1113 1580 14 0 0 1113
07/21/2015 509.15 65907 175 67000 -1093 1210 1312 14 0 0 1210
07/22/2015 508.71 65363 -544 67000 -1637 1291 1033 16 0 0 1291
07/23/2015 507.71 64138 -1225 67000 -2862 1313 712 17 0 0 1313
07/24/2015 507.82 64271 133 67000 -2729 1307 1390 16 0 0 1307
07/25/2015 508.08 64587 316 67000 -2413 1268 1444 17 0 0 1268
07/26/2015 508.32 64883 296 67000 -2117 1172 1338 17 0 0 1172
07/27/2015 508.61 65240 357 67000 -1760 1128 1325 17 0 0 1128
07/28/2015 508.83 65511 271 67000 -1489 1168 1323 18 0 0 1168
07/29/2015 509.10 65845 334 67000 -1155 1278 1464 18 0 0 1278
07/30/2015 508.65 65289 -556 67000 -1711 1342 1081 19 0 0 1342
07/31/2015 508.22 64760 -529 67000 -2240 1314 1066 19 0 0 1314
08/01/2015 508.01 64501 -259 67000 -2499 1300 1185 16 0 0 1300
08/02/2015 507.96 64441 -60 67000 -2559 1252 1240 18 0 0 1252
08/03/2015 507.89 64356 -85 67000 -2644 1231 1204 16 0 0 1231
08/04/2015 -- -- -- -- -- -- -- -- -- -- --
08/05/2015 -- -- -- -- -- -- -- -- -- -- --

Later | Latest

Warning! This data is preliminary and subject to revision.

Show TUL Map | Plot TUL Data | 1 Month TUL Data | Real-Time TUL Data | TUL Info